Time;durP1;ratioP1;P1;durP2;ratioP2;P2;SDS_P1;SDS_P2;PMS_P1;PMS_P2;Temp;Humidity;BMP_temperature;BMP_pressure;BME280_temperature;BME280_humidity;BME280_pressure;Samples;Min_cycle;Max_cycle;Signal;HPM_P1;HPM_P2
2023/01/25 04:00:35;;;;;;;10.90;9.90;;;4.40;88.50;;;;;;6043083;23;20388;31
2023/01/25 04:03:02;;;;;;;12.30;11.00;;;4.40;88.20;;;;;;4935557;29;20498;-66
2023/01/25 04:05:28;;;;;;;11.20;10.10;;;4.40;88.40;;;;;;4936581;29;20460;-67
2023/01/25 04:07:55;;;;;;;9.60;8.70;;;4.60;87.90;;;;;;4936630;29;20519;-66
2023/01/25 04:10:21;;;;;;;10.17;9.17;;;4.60;87.30;;;;;;4935944;29;20456;-68
2023/01/25 04:12:48;;;;;;;10.63;9.63;;;4.60;87.40;;;;;;4936435;29;20452;-66
2023/01/25 04:15:15;;;;;;;10.20;8.70;;;4.60;87.20;;;;;;4936944;29;20448;-66
2023/01/25 04:17:43;;;;;;;10.07;9.10;;;4.60;87.00;;;;;;4936404;29;20444;-66
2023/01/25 04:20:11;;;;;;;10.63;9.63;;;4.40;87.40;;;;;;4936368;29;20456;-67
2023/01/25 04:22:37;;;;;;;10.60;9.50;;;4.40;87.90;;;;;;4936388;29;20468;-66
2023/01/25 04:25:05;;;;;;;10.33;9.13;;;4.40;87.80;;;;;;4936192;29;20447;-68
2023/01/25 04:27:31;;;;;;;9.47;8.47;;;4.40;87.70;;;;;;4935472;29;20456;-66
2023/01/25 04:29:58;;;;;;;9.33;8.53;;;4.50;87.60;;;;;;4936281;29;20452;-68
2023/01/25 04:32:25;;;;;;;9.47;8.07;;;4.30;87.60;;;;;;4936012;29;20543;-67
2023/01/25 04:34:53;;;;;;;9.30;8.40;;;4.30;88.00;;;;;;4936238;29;20503;-66
2023/01/25 04:37:19;;;;;;;9.33;8.43;;;4.40;88.00;;;;;;4936067;29;20503;-66
2023/01/25 04:39:46;;;;;;;8.17;7.37;;;4.60;87.60;;;;;;4936001;29;20452;-67
2023/01/25 04:42:12;;;;;;;9.80;8.40;;;4.50;86.90;;;;;;4936743;29;20476;-66
2023/01/25 04:44:39;;;;;;;8.90;8.00;;;4.30;87.20;;;;;;4936061;29;20460;-67
2023/01/25 04:47:06;;;;;;;8.80;7.87;;;4.10;87.80;;;;;;4935943;29;20456;-66
2023/01/25 04:49:32;;;;;;;10.57;8.57;;;3.90;88.60;;;;;;4935996;29;20459;-68
2023/01/25 04:52:01;;;;;;;8.27;7.47;;;3.80;89.50;;;;;;4936001;29;20543;-65
2023/01/25 04:54:27;;;;;;;12.73;11.40;;;3.90;89.30;;;;;;4936012;29;20448;-67
2023/01/25 04:56:54;;;;;;;9.87;8.83;;;4.00;89.30;;;;;;4936506;29;20515;-66
2023/01/25 04:59:20;;;;;;;12.63;11.33;;;4.00;89.20;;;;;;4935877;29;20448;-67
2023/01/25 05:01:47;;;;;;;10.10;9.20;;;4.10;88.90;;;;;;4935569;29;20483;-67
2023/01/25 05:04:14;;;;;;;8.00;7.27;;;4.10;88.50;;;;;;4935909;29;20463;-67
2023/01/25 05:06:40;;;;;;;8.23;7.20;;;4.20;88.60;;;;;;4935896;29;20459;-67
2023/01/25 05:09:09;;;;;;;8.53;7.20;;;4.30;88.00;;;;;;4935800;29;20507;-66
2023/01/25 05:11:35;;;;;;;8.10;7.30;;;4.40;87.90;;;;;;4935702;29;20516;-66
2023/01/25 05:14:02;;;;;;;7.80;7.10;;;4.30;87.30;;;;;;4935775;29;20456;-66
2023/01/25 05:16:29;;;;;;;7.90;7.10;;;4.30;87.40;;;;;;4935495;29;20499;-67
2023/01/25 05:18:56;;;;;;;8.57;7.67;;;4.10;87.50;;;;;;4935950;29;20865;-66
2023/01/25 05:24:08;;;;;;;8.50;7.70;;;4.00;88.70;;;;;;4936230;29;20412;-66
2023/01/25 05:29:19;;;;;;;7.27;6.60;;;4.00;88.80;;;;;;4935648;29;20548;-66
2023/01/25 05:31:46;;;;;;;9.90;8.80;;;3.90;88.60;;;;;;4935558;29;20562;-67
2023/01/25 05:34:12;;;;;;;10.17;7.70;;;4.00;88.80;;;;;;4935639;29;20799;-67
2023/01/25 05:36:39;;;;;;;9.73;7.10;;;4.00;88.30;;;;;;4935323;29;20456;-67
2023/01/25 05:39:07;;;;;;;7.70;6.90;;;4.00;88.60;;;;;;4937316;29;20479;-66
2023/01/25 05:41:35;;;;;;;8.20;7.40;;;4.20;88.30;;;;;;4938958;29;20503;-66
2023/01/25 05:44:02;;;;;;;8.10;6.43;;;4.30;87.60;;;;;;4939062;29;20503;-66
2023/01/25 05:46:29;;;;;;;8.27;7.17;;;4.30;87.20;;;;;;4938998;29;20523;-67
2023/01/25 05:48:56;;;;;;;8.70;7.90;;;4.40;87.30;;;;;;4938982;29;20455;-67
2023/01/25 05:51:22;;;;;;;9.60;8.60;;;4.40;86.70;;;;;;4938835;29;20491;-67
2023/01/25 05:53:49;;;;;;;7.90;7.10;;;4.40;86.80;;;;;;4938881;29;20451;-67
2023/01/25 05:56:16;;;;;;;7.90;7.20;;;4.50;87.00;;;;;;4938885;29;20456;-67
2023/01/25 05:58:44;;;;;;;7.53;6.77;;;4.40;86.20;;;;;;4938787;29;20452;-67
2023/01/25 06:01:11;;;;;;;9.40;6.50;;;4.30;86.90;;;;;;4938527;29;20487;-67
2023/01/25 06:03:38;;;;;;;7.70;6.27;;;4.40;87.10;;;;;;4938911;29;20454;-67
2023/01/25 06:06:05;;;;;;;8.47;7.17;;;4.50;86.70;;;;;;4938718;29;20452;-67
2023/01/25 06:08:32;;;;;;;8.10;7.00;;;4.40;86.20;;;;;;4938743;29;20498;-67
2023/01/25 06:10:59;;;;;;;9.10;7.30;;;4.50;86.30;;;;;;4940252;29;20543;-67
2023/01/25 06:13:25;;;;;;;8.20;7.40;;;4.50;86.10;;;;;;4942789;29;20480;-67
2023/01/25 06:15:54;;;;;;;7.90;7.10;;;4.60;85.60;;;;;;4941634;29;20453;-67
2023/01/25 06:18:23;;;;;;;8.13;7.03;;;4.60;85.80;;;;;;4939919;29;20452;-67
2023/01/25 06:20:50;;;;;;;7.23;6.40;;;4.40;85.50;;;;;;4938390;29;20476;-68
2023/01/25 06:23:17;;;;;;;8.17;7.40;;;4.20;86.10;;;;;;4938424;29;20444;-67
2023/01/25 06:25:43;;;;;;;7.77;6.97;;;4.30;86.30;;;;;;4937964;29;20942;-68
2023/01/25 06:28:10;;;;;;;7.37;6.63;;;4.20;86.40;;;;;;4938281;29;20507;-67
2023/01/25 06:30:37;;;;;;;7.43;6.63;;;4.20;86.70;;;;;;4938157;29;20452;-68
2023/01/25 06:33:05;;;;;;;7.63;6.93;;;4.20;86.70;;;;;;4937927;29;20539;-68
2023/01/25 06:35:32;;;;;;;7.57;6.73;;;4.30;86.40;;;;;;4938076;29;20915;-67
2023/01/25 06:38:00;;;;;;;7.67;6.87;;;4.30;86.30;;;;;;4938014;29;20455;-66
2023/01/25 06:40:27;;;;;;;7.93;7.23;;;4.30;86.30;;;;;;4938012;29;20448;-67
2023/01/25 06:42:54;;;;;;;8.07;6.60;;;4.30;85.80;;;;;;4938048;29;20861;-67
2023/01/25 06:45:21;;;;;;;7.93;7.13;;;4.10;86.10;;;;;;4937711;29;20456;-67
2023/01/25 06:47:49;;;;;;;8.87;6.93;;;4.00;86.80;;;;;;4937595;29;20946;-68
2023/01/25 06:50:17;;;;;;;7.83;7.07;;;4.10;87.00;;;;;;4937148;29;20506;-68
2023/01/25 06:52:50;;;;;;;8.33;7.53;;;4.20;86.70;;;;;;4937365;29;20909;-67
2023/01/25 06:55:17;;;;;;;7.97;7.27;;;4.10;86.30;;;;;;4937836;29;20484;-66
2023/01/25 06:57:44;;;;;;;8.07;7.30;;;4.10;86.40;;;;;;4937700;29;20451;-65
2023/01/25 07:00:11;;;;;;;7.87;7.07;;;4.00;86.40;;;;;;4937435;29;20452;-66
2023/01/25 07:02:38;;;;;;;8.60;7.70;;;3.80;87.20;;;;;;4937293;29;20535;-66
2023/01/25 07:05:06;;;;;;;8.30;7.40;;;3.90;87.50;;;;;;4937619;29;20515;-66
2023/01/25 07:07:34;;;;;;;8.33;7.53;;;4.10;86.80;;;;;;4939819;29;20456;-67
2023/01/25 07:10:01;;;;;;;7.90;7.00;;;4.20;86.80;;;;;;4937347;29;20454;-67
2023/01/25 07:12:29;;;;;;;9.37;8.50;;;4.10;86.30;;;;;;4936973;29;21024;-66
2023/01/25 07:14:56;;;;;;;9.43;8.53;;;4.10;86.20;;;;;;4937226;29;20455;-66
2023/01/25 07:17:22;;;;;;;9.27;8.37;;;4.20;86.60;;;;;;4937318;29;20554;-66
2023/01/25 07:19:49;;;;;;;9.50;8.50;;;4.00;86.00;;;;;;4937254;29;20456;-68
2023/01/25 07:22:16;;;;;;;9.10;8.30;;;4.00;86.70;;;;;;4936837;29;20893;-66
2023/01/25 07:24:48;;;;;;;8.73;7.93;;;4.10;86.30;;;;;;4937087;29;20466;-66
2023/01/25 07:27:15;;;;;;;7.97;7.17;;;4.10;86.00;;;;;;4937228;29;20838;-66
2023/01/25 07:29:42;;;;;;;7.20;6.50;;;4.00;86.10;;;;;;4937115;29;20452;-67
2023/01/25 07:32:08;;;;;;;8.60;7.80;;;4.00;86.60;;;;;;4936756;29;20998;-66
2023/01/25 07:34:35;;;;;;;7.83;7.03;;;4.10;86.70;;;;;;4936943;29;20522;-66
2023/01/25 07:37:02;;;;;;;8.17;7.37;;;4.20;85.80;;;;;;4936778;29;20985;-66
2023/01/25 07:39:28;;;;;;;7.97;7.20;;;4.10;86.00;;;;;;4937793;29;20567;-66
2023/01/25 07:41:56;;;;;;;7.37;6.67;;;4.10;86.30;;;;;;4937120;29;20464;-67
2023/01/25 07:44:23;;;;;;;8.73;7.83;;;4.20;85.70;;;;;;4936962;29;20453;-66
2023/01/25 07:46:50;;;;;;;9.57;7.60;;;4.00;85.90;;;;;;4936831;29;20452;-66
2023/01/25 07:49:17;;;;;;;9.20;8.40;;;4.00;86.50;;;;;;4936868;29;20452;-66
2023/01/25 07:51:43;;;;;;;8.73;7.83;;;4.10;86.00;;;;;;4936271;29;20985;-66
2023/01/25 07:54:11;;;;;;;8.07;7.20;;;4.30;86.00;;;;;;4936377;29;20950;-65
2023/01/25 07:56:39;;;;;;;9.73;8.83;;;4.40;85.40;;;;;;4936751;29;20452;-67
2023/01/25 07:59:08;;;;;;;9.17;8.27;;;4.50;85.00;;;;;;4936739;29;20456;-67
2023/01/25 08:01:35;;;;;;;8.83;7.67;;;4.50;85.00;;;;;;4936821;29;20517;-65
2023/01/25 08:04:03;;;;;;;8.30;6.97;;;4.50;84.70;;;;;;4936461;29;20827;-66
2023/01/25 08:06:34;;;;;;;8.60;7.80;;;4.40;84.60;;;;;;4936417;29;20481;-68
2023/01/25 08:09:01;;;;;;;8.43;7.63;;;4.40;84.50;;;;;;4936193;29;20926;-68
2023/01/25 08:11:30;;;;;;;9.17;8.33;;;4.30;84.40;;;;;;4935966;29;20468;-64
2023/01/25 08:13:57;;;;;;;7.90;7.10;;;4.10;85.00;;;;;;4936204;29;20479;-66
2023/01/25 08:16:27;;;;;;;9.23;8.20;;;4.00;85.00;;;;;;4936263;29;20507;-66
2023/01/25 08:18:55;;;;;;;8.57;7.73;;;3.50;86.50;;;;;;4936232;29;20503;-66
2023/01/25 08:21:24;;;;;;;8.60;7.80;;;3.50;87.50;;;;;;4936338;29;20472;-67
2023/01/25 08:23:51;;;;;;;8.33;7.33;;;3.60;87.30;;;;;;4936437;29;20519;-66
2023/01/25 08:26:18;;;;;;;9.10;8.20;;;3.70;87.40;;;;;;4936087;29;20511;-66
2023/01/25 08:28:44;;;;;;;8.87;7.97;;;3.70;87.20;;;;;;4936442;29;20462;-67
2023/01/25 08:31:13;;;;;;;8.90;8.00;;;3.80;87.30;;;;;;4936268;29;20468;-66
2023/01/25 08:33:42;;;;;;;8.97;7.80;;;3.80;87.10;;;;;;4936304;29;20488;-66
2023/01/25 08:36:10;;;;;;;8.83;8.03;;;3.70;86.90;;;;;;4936215;29;20534;-66
2023/01/25 08:38:38;;;;;;;9.23;8.33;;;3.60;86.70;;;;;;4936447;29;20503;-66
2023/01/25 08:41:05;;;;;;;9.40;8.50;;;3.60;86.50;;;;;;4936390;29;20479;-67
2023/01/25 08:43:32;;;;;;;8.70;7.60;;;3.60;87.20;;;;;;4935925;29;20845;-66
2023/01/25 08:45:59;;;;;;;10.30;7.90;;;3.90;86.90;;;;;;4936200;29;20464;-67
2023/01/25 08:48:26;;;;;;;9.53;8.60;;;3.80;86.80;;;;;;4936116;29;20456;-66
2023/01/25 08:50:54;;;;;;;8.33;7.50;;;4.00;86.70;;;;;;4936239;29;20476;-67
2023/01/25 08:53:21;;;;;;;10.43;8.20;;;3.80;85.80;;;;;;4936133;29;20479;-66
2023/01/25 08:55:48;;;;;;;9.77;8.77;;;3.60;86.50;;;;;;4935939;29;20499;-67
2023/01/25 08:58:18;;;;;;;9.00;8.10;;;3.60;86.80;;;;;;4935632;29;20459;-66
2023/01/25 09:00:45;;;;;;;9.70;8.80;;;3.70;87.30;;;;;;4935834;29;20473;-68
2023/01/25 09:03:12;;;;;;;10.00;8.60;;;3.90;86.80;;;;;;4936075;29;20433;-66
2023/01/25 09:05:39;;;;;;;9.43;8.43;;;4.10;86.20;;;;;;4936496;29;20456;-66
2023/01/25 09:08:09;;;;;;;8.83;7.93;;;4.20;85.60;;;;;;4936514;29;20504;-66
2023/01/25 09:10:36;;;;;;;8.40;7.40;;;4.30;85.00;;;;;;4935747;29;20499;-66
2023/01/25 09:13:03;;;;;;;9.93;9.03;;;4.20;84.80;;;;;;4935768;29;21012;-67
2023/01/25 09:15:29;;;;;;;9.33;7.97;;;4.10;85.20;;;;;;4939713;29;20455;-66
2023/01/25 09:17:57;;;;;;;9.93;8.93;;;3.90;85.20;;;;;;4939813;29;20455;-66
2023/01/25 09:20:24;;;;;;;8.93;8.03;;;3.90;85.70;;;;;;4939606;29;20507;-68
2023/01/25 09:22:51;;;;;;;9.63;8.63;;;4.00;85.60;;;;;;4939566;29;20444;-66
2023/01/25 09:25:19;;;;;;;8.93;8.03;;;3.90;85.40;;;;;;4939338;29;20448;-68
2023/01/25 09:27:49;;;;;;;9.80;8.90;;;3.90;85.30;;;;;;4939758;29;20507;-66
2023/01/25 09:30:16;;;;;;;9.30;8.40;;;3.70;85.70;;;;;;4939419;29;20451;-67
2023/01/25 09:32:42;;;;;;;9.20;8.30;;;3.70;86.50;;;;;;4939222;29;20491;-67
2023/01/25 09:35:09;;;;;;;8.77;7.90;;;3.70;86.30;;;;;;4939203;29;20507;-69
2023/01/25 09:37:36;;;;;;;8.23;7.43;;;3.60;87.00;;;;;;4939185;29;20514;-66
2023/01/25 09:40:03;;;;;;;8.63;7.73;;;3.70;87.00;;;;;;4938795;29;20953;-68
2023/01/25 09:42:57;;;;;;;8.07;7.27;;;3.50;86.70;;;;;;4939064;29;20558;-66
2023/01/25 09:45:31;;;;;;;9.50;7.70;;;3.40;87.60;;;;;;4939124;29;20444;-66
2023/01/25 09:48:03;;;;;;;9.40;8.40;;;3.50;87.80;;;;;;4939052;29;20435;-68
2023/01/25 09:50:37;;;;;;;8.10;7.30;;;3.60;87.50;;;;;;4938885;29;20491;-67
2023/01/25 09:53:33;;;;;;;8.37;7.57;;;3.80;86.40;;;;;;4938888;29;20498;-67
2023/01/25 09:56:03;;;;;;;8.77;7.87;;;3.70;86.50;;;;;;4938847;29;20539;-67
2023/01/25 09:58:36;;;;;;;9.37;8.47;;;3.80;86.50;;;;;;4938735;29;20448;-66
2023/01/25 10:01:12;;;;;;;7.87;7.07;;;3.80;86.00;;;;;;4938715;29;20547;-67
2023/01/25 10:03:45;;;;;;;9.53;8.60;;;3.50;86.50;;;;;;4938408;29;20914;-67
2023/01/25 10:06:15;;;;;;;9.97;9.07;;;3.50;87.10;;;;;;4938812;29;20515;-66
2023/01/25 10:08:49;;;;;;;7.90;7.10;;;3.30;87.70;;;;;;4938573;29;20460;-67
2023/01/25 10:11:23;;;;;;;9.93;8.77;;;3.30;88.00;;;;;;4938764;29;20562;-68
2023/01/25 10:13:51;;;;;;;9.27;8.37;;;3.50;88.20;;;;;;4938642;29;20480;-68
2023/01/25 10:16:23;;;;;;;9.30;8.30;;;3.60;87.00;;;;;;4939231;29;20507;-67
2023/01/25 10:18:59;;;;;;;9.97;7.60;;;3.80;86.90;;;;;;4938787;29;20444;-66
2023/01/25 10:21:30;;;;;;;8.87;7.70;;;3.70;86.30;;;;;;4938709;29;20467;-68
2023/01/25 10:24:30;;;;;;;9.03;7.67;;;3.70;86.50;;;;;;4938606;29;20840;-66
2023/01/25 10:26:58;;;;;;;9.27;7.47;;;3.80;86.40;;;;;;4911998;29;20507;-66
2023/01/25 10:29:30;;;;;;;8.47;7.57;;;4.00;85.60;;;;;;4938424;29;20444;-67
2023/01/25 10:32:11;;;;;;;9.10;8.20;;;3.90;85.10;;;;;;4938556;29;20499;-67
2023/01/25 10:34:44;;;;;;;9.57;8.67;;;3.90;85.60;;;;;;4938154;29;20526;-67
2023/01/25 10:37:13;;;;;;;8.63;7.87;;;4.00;85.80;;;;;;4937996;29;20440;-67
2023/01/25 10:39:53;;;;;;;8.20;7.40;;;4.10;85.40;;;;;;4937760;29;20864;-66
2023/01/25 10:42:22;;;;;;;8.20;7.40;;;4.30;84.80;;;;;;4938092;29;20467;-66
2023/01/25 10:44:50;;;;;;;9.00;8.13;;;4.20;84.50;;;;;;4938012;29;20507;-66
2023/01/25 10:47:21;;;;;;;7.57;6.77;;;4.30;84.40;;;;;;4938017;29;20506;-67
2023/01/25 10:49:50;;;;;;;7.83;7.03;;;4.20;83.80;;;;;;4937931;29;20440;-66
2023/01/25 10:52:19;;;;;;;6.97;6.33;;;4.20;84.40;;;;;;4937408;29;20910;-66
2023/01/25 10:54:49;;;;;;;8.40;7.60;;;4.20;84.10;;;;;;4937596;29;20535;-66
2023/01/25 10:57:19;;;;;;;7.70;6.97;;;4.20;83.90;;;;;;4937715;29;20456;-68
2023/01/25 10:59:50;;;;;;;7.70;7.00;;;4.30;83.90;;;;;;4937778;29;20443;-67
2023/01/25 11:02:44;;;;;;;8.13;7.33;;;4.30;83.90;;;;;;4937412;29;20484;-66
2023/01/25 11:05:36;;;;;;;9.03;8.03;;;4.20;83.50;;;;;;4893193;29;20515;-66
2023/01/25 11:08:22;;;;;;;8.17;7.40;;;4.30;83.80;;;;;;4919301;29;20942;-66
2023/01/25 11:10:49;;;;;;;7.20;6.50;;;4.50;83.40;;;;;;4937642;29;20475;-67
2023/01/25 11:13:22;;;;;;;7.50;6.80;;;4.30;83.30;;;;;;4937398;29;20515;-67
2023/01/25 11:15:52;;;;;;;7.23;6.53;;;4.30;83.70;;;;;;4937513;29;20462;-68
2023/01/25 11:18:22;;;;;;;8.13;6.80;;;4.40;83.40;;;;;;4943728;29;20476;-67
2023/01/25 11:21:04;;;;;;;8.70;7.80;;;4.50;83.20;;;;;;4939022;29;20899;-66
2023/01/25 11:23:32;;;;;;;8.17;7.37;;;4.40;82.80;;;;;;4937396;29;20487;-66
2023/01/25 11:26:12;;;;;;;8.20;7.40;;;4.00;83.60;;;;;;4937169;29;20498;-66
2023/01/25 11:28:39;;;;;;;7.87;6.70;;;3.90;84.60;;;;;;4937144;29;20429;-65
2023/01/25 11:31:11;;;;;;;7.00;6.40;;;3.70;85.10;;;;;;4936985;29;20531;-65
2023/01/25 11:33:38;;;;;;;7.80;6.97;;;3.50;85.90;;;;;;4936926;29;20472;-66
2023/01/25 11:36:25;;;;;;;8.03;7.23;;;3.40;86.20;;;;;;4936528;29;20448;-66
2023/01/25 11:39:04;;;;;;;8.07;7.27;;;3.30;86.90;;;;;;4937095;29;20432;-66
2023/01/25 11:41:36;;;;;;;8.17;7.47;;;3.30;86.90;;;;;;4936864;29;20535;-66
2023/01/25 11:44:21;;;;;;;7.50;6.80;;;3.30;86.80;;;;;;4936803;29;20491;-66
2023/01/25 11:46:59;;;;;;;8.70;7.87;;;3.30;86.90;;;;;;4936891;29;20492;-66
2023/01/25 11:49:36;;;;;;;8.83;7.93;;;3.40;87.00;;;;;;4936366;29;20909;-66
2023/01/25 11:52:14;;;;;;;7.47;6.77;;;3.40;86.60;;;;;;4936626;29;20530;-66
2023/01/25 11:54:56;;;;;;;7.93;6.50;;;3.20;86.80;;;;;;4937001;29;20538;-65
2023/01/25 11:57:44;;;;;;;7.77;7.03;;;3.10;87.40;;;;;;4936602;29;20781;-66
2023/01/25 12:00:29;;;;;;;8.80;7.90;;;3.20;87.60;;;;;;4937706;29;20445;-67
2023/01/25 12:03:18;;;;;;;8.60;7.80;;;3.20;87.40;;;;;;4940802;29;20460;-67
2023/01/25 12:05:55;;;;;;;8.40;7.60;;;3.10;87.60;;;;;;4940530;29;20447;-67
2023/01/25 12:08:49;;;;;;;9.87;8.30;;;3.10;87.70;;;;;;4941782;29;20436;-68
2023/01/25 12:11:30;;;;;;;8.50;7.70;;;3.00;88.00;;;;;;4940330;29;21011;-68
2023/01/25 12:14:07;;;;;;;7.83;7.13;;;3.00;88.20;;;;;;4940151;29;20468;-67
2023/01/25 12:16:46;;;;;;;8.43;7.60;;;3.10;87.70;;;;;;4939981;29;20843;-67
2023/01/25 12:19:33;;;;;;;8.30;7.50;;;3.00;88.10;;;;;;4939229;29;20436;-67
2023/01/25 12:22:26;;;;;;;8.20;7.40;;;2.90;88.20;;;;;;4939303;29;20480;-67
2023/01/25 12:25:02;;;;;;;9.03;8.23;;;2.90;88.50;;;;;;4939571;29;20979;-69
2023/01/25 12:27:46;;;;;;;7.47;6.77;;;3.20;88.70;;;;;;4939173;29;20436;-66
2023/01/25 12:30:21;;;;;;;8.53;7.73;;;3.30;87.00;;;;;;4939453;29;20456;-69
2023/01/25 12:32:51;;;;;;;9.53;8.60;;;3.30;86.60;;;;;;4940801;29;20440;-68
2023/01/25 12:35:28;;;;;;;9.20;8.00;;;3.30;86.80;;;;;;4938948;29;20476;-69
2023/01/25 12:38:01;;;;;;;8.83;7.93;;;3.50;87.10;;;;;;4939093;29;20886;-68
2023/01/25 12:40:42;;;;;;;8.07;7.27;;;3.70;86.80;;;;;;4939034;29;20437;-66
2023/01/25 12:43:17;;;;;;;8.50;7.70;;;3.90;86.00;;;;;;4940310;29;20441;-68
2023/01/25 12:45:46;;;;;;;8.40;7.50;;;3.70;85.50;;;;;;4939699;29;20440;-68
2023/01/25 12:48:18;;;;;;;8.60;7.80;;;3.70;86.10;;;;;;4940601;29;20873;-68
2023/01/25 12:50:53;;;;;;;9.03;8.13;;;3.90;85.50;;;;;;4943323;29;20483;-69
2023/01/25 12:53:23;;;;;;;7.80;7.10;;;4.00;84.60;;;;;;4943570;29;20495;-69
2023/01/25 12:55:51;;;;;;;8.93;8.13;;;4.10;84.40;;;;;;4944367;29;20444;-67
2023/01/25 12:58:27;;;;;;;9.20;8.30;;;4.20;84.20;;;;;;4943538;29;20479;-68
2023/01/25 13:01:00;;;;;;;9.10;8.23;;;4.20;84.00;;;;;;4943657;29;21016;-67
2023/01/25 13:03:33;;;;;;;8.37;7.57;;;4.20;83.50;;;;;;4943477;29;20523;-68
2023/01/25 13:06:09;;;;;;;10.13;9.00;;;4.20;83.80;;;;;;4942643;29;20436;-68
2023/01/25 13:08:45;;;;;;;8.10;7.40;;;4.30;83.30;;;;;;4943619;29;20432;-68
2023/01/25 13:11:16;;;;;;;9.23;8.30;;;4.40;82.70;;;;;;4942730;29;20849;-68
2023/01/25 13:13:43;;;;;;;9.07;8.27;;;4.50;82.60;;;;;;4942291;29;20475;-68
2023/01/25 13:16:35;;;;;;;8.40;7.53;;;4.60;82.30;;;;;;4942797;29;20455;-68
2023/01/25 13:19:02;;;;;;;9.43;8.47;;;4.70;81.70;;;;;;4943126;29;20436;-68
2023/01/25 13:21:45;;;;;;;9.10;8.07;;;4.70;81.70;;;;;;4941430;29;20996;-66
2023/01/25 13:24:18;;;;;;;9.30;8.40;;;4.80;81.80;;;;;;4942184;29;20440;-68
2023/01/25 13:27:00;;;;;;;8.07;7.27;;;4.50;81.70;;;;;;4942553;29;20444;-69
2023/01/25 13:30:02;;;;;;;8.97;8.17;;;4.60;82.30;;;;;;4943131;29;20444;-69
2023/01/25 13:32:58;;;;;;;8.77;7.87;;;4.50;82.00;;;;;;4942796;29;20506;-69
2023/01/25 13:35:40;;;;;;;10.33;8.03;;;4.40;82.70;;;;;;4942383;29;20512;-69
2023/01/25 13:38:28;;;;;;;9.10;8.20;;;4.40;82.80;;;;;;4942526;29;20459;-68
2023/01/25 13:41:11;;;;;;;8.30;7.50;;;4.50;82.70;;;;;;4942751;29;20561;-68
2023/01/25 13:43:41;;;;;;;9.50;8.40;;;4.50;82.60;;;;;;4945000;29;20448;-67
2023/01/25 13:46:10;;;;;;;10.97;9.87;;;4.60;82.50;;;;;;4945207;29;20448;-69
2023/01/25 13:48:46;;;;;;;9.00;8.10;;;4.70;82.30;;;;;;4945397;29;20511;-67
2023/01/25 13:51:15;;;;;;;10.67;9.40;;;4.80;81.80;;;;;;4944882;29;20467;-68
2023/01/25 13:53:55;;;;;;;10.23;8.23;;;4.90;81.50;;;;;;4943710;29;20554;-68
2023/01/25 13:56:29;;;;;;;9.47;8.57;;;4.90;81.40;;;;;;4943972;29;20459;-68
2023/01/25 13:58:56;;;;;;;8.83;7.93;;;4.70;81.70;;;;;;4943065;29;20444;-68
2023/01/25 14:01:23;;;;;;;9.63;8.73;;;4.40;81.80;;;;;;4943074;29;20516;-67
2023/01/25 14:03:54;;;;;;;9.40;8.53;;;4.40;82.90;;;;;;4942633;29;20508;-69
2023/01/25 14:06:26;;;;;;;7.60;6.87;;;4.40;82.60;;;;;;4943189;29;20507;-69
2023/01/25 14:08:56;;;;;;;11.00;9.90;;;4.30;83.10;;;;;;4943165;29;20479;-69
2023/01/25 14:11:25;;;;;;;9.40;8.57;;;4.30;83.10;;;;;;4942177;29;20471;-69
2023/01/25 14:13:59;;;;;;;9.93;9.00;;;4.20;83.30;;;;;;4942139;29;20495;-69
2023/01/25 14:16:28;;;;;;;9.40;8.60;;;4.30;83.30;;;;;;4942687;29;20770;-69
2023/01/25 14:18:56;;;;;;;10.10;9.10;;;4.00;83.10;;;;;;4942293;29;20464;-69
2023/01/25 14:21:23;;;;;;;10.00;8.67;;;4.00;84.00;;;;;;4941220;29;20985;-69
2023/01/25 14:23:51;;;;;;;9.07;8.17;;;4.20;83.40;;;;;;4941175;29;20448;-72
2023/01/25 14:26:24;;;;;;;10.30;9.10;;;4.30;83.20;;;;;;4941035;29;20456;-68
2023/01/25 14:28:53;;;;;;;9.80;8.90;;;4.30;82.90;;;;;;4941526;29;20440;-69
2023/01/25 14:31:23;;;;;;;10.80;9.23;;;4.30;83.20;;;;;;4941880;29;20472;-69
2023/01/25 14:33:56;;;;;;;10.40;9.30;;;4.30;83.30;;;;;;4942407;29;20451;-69
2023/01/25 14:36:24;;;;;;;9.93;8.97;;;3.90;83.80;;;;;;4941504;29;20476;-68
2023/01/25 14:38:51;;;;;;;9.30;8.40;;;3.80;84.70;;;;;;4941124;29;20484;-69
2023/01/25 14:41:21;;;;;;;10.10;9.10;;;3.70;85.40;;;;;;4940755;29;20535;-67
2023/01/25 14:43:52;;;;;;;10.63;9.50;;;3.80;84.90;;;;;;4940672;29;20459;-69
2023/01/25 14:46:29;;;;;;;9.90;8.93;;;4.00;84.70;;;;;;4940445;29;20444;-69
2023/01/25 14:49:14;;;;;;;9.93;8.97;;;3.80;84.40;;;;;;4941206;29;20468;-69
2023/01/25 14:51:43;;;;;;;9.50;8.60;;;3.30;85.40;;;;;;4940058;29;20527;-67
2023/01/25 14:54:17;;;;;;;10.33;8.97;;;3.30;86.30;;;;;;4941107;29;20488;-67
2023/01/25 14:56:46;;;;;;;10.17;9.17;;;3.20;86.50;;;;;;4940812;29;20440;-69
2023/01/25 14:59:33;;;;;;;10.87;9.80;;;2.90;87.10;;;;;;4941516;29;20452;-69
2023/01/25 15:02:03;;;;;;;9.03;8.13;;;2.80;88.10;;;;;;4940495;29;20492;-71
2023/01/25 15:04:30;;;;;;;13.20;11.90;;;2.70;88.60;;;;;;4941640;29;20440;-67
2023/01/25 15:06:57;;;;;;;13.00;11.27;;;2.70;88.60;;;;;;4940939;29;20580;-68
2023/01/25 15:09:39;;;;;;;11.03;9.90;;;3.00;88.80;;;;;;4937080;29;21006;-68
2023/01/25 15:12:26;;;;;;;10.57;9.60;;;3.20;87.70;;;;;;4936729;29;20483;-67
2023/01/25 15:14:57;;;;;;;9.63;8.63;;;3.00;87.60;;;;;;4937329;29;20558;-67
2023/01/25 15:17:44;;;;;;;10.90;9.90;;;3.10;87.70;;;;;;4937468;29;20444;-67
2023/01/25 15:20:34;;;;;;;10.47;9.20;;;3.40;87.30;;;;;;4937222;29;20432;-67
2023/01/25 15:23:12;;;;;;;10.97;9.90;;;3.70;86.30;;;;;;4937326;29;20440;-68
2023/01/25 15:25:49;;;;;;;11.13;10.03;;;3.80;85.60;;;;;;4937507;29;20488;-68
2023/01/25 15:28:15;;;;;;;9.97;8.97;;;3.90;85.10;;;;;;4937422;29;20432;-69
2023/01/25 15:30:43;;;;;;;10.33;9.23;;;3.80;84.40;;;;;;4937337;29;20475;-69
2023/01/25 15:33:19;;;;;;;10.70;9.70;;;3.80;85.20;;;;;;4937182;29;20448;-70
2023/01/25 15:35:45;;;;;;;11.73;9.67;;;4.00;84.40;;;;;;4937119;29;20464;-68
2023/01/25 15:38:13;;;;;;;11.57;10.37;;;3.90;83.90;;;;;;4937224;29;20448;-69
2023/01/25 15:40:40;;;;;;;13.67;11.50;;;3.90;84.30;;;;;;4936879;29;20519;-68
2023/01/25 15:43:10;;;;;;;11.33;10.33;;;3.60;85.10;;;;;;4936965;29;20451;-68
2023/01/25 15:45:37;;;;;;;10.60;9.53;;;3.70;85.90;;;;;;4936829;29;20515;-68
2023/01/25 15:48:06;;;;;;;11.80;10.67;;;3.90;85.60;;;;;;4936683;29;20452;-68
2023/01/25 15:50:33;;;;;;;11.03;9.93;;;3.80;85.40;;;;;;4936663;29;20490;-68
2023/01/25 15:52:59;;;;;;;11.97;10.77;;;3.90;85.30;;;;;;4936687;29;20512;-68
2023/01/25 15:55:27;;;;;;;10.03;8.97;;;4.00;84.90;;;;;;4936421;29;20516;-66
2023/01/25 15:57:53;;;;;;;11.53;10.33;;;3.90;84.70;;;;;;4936556;29;20447;-68
2023/01/25 16:00:22;;;;;;;11.27;10.17;;;3.80;85.00;;;;;;4936464;29;20456;-69
2023/01/25 16:02:49;;;;;;;11.70;10.23;;;3.80;85.30;;;;;;4936370;29;20470;-68
2023/01/25 16:05:17;;;;;;;12.17;10.87;;;3.50;85.70;;;;;;4936431;29;20448;-68
2023/01/25 16:07:45;;;;;;;11.63;9.30;;;3.40;87.00;;;;;;4936422;29;20455;-68
2023/01/25 16:10:20;;;;;;;9.17;8.23;;;3.60;86.70;;;;;;4936252;29;20534;-68
2023/01/25 16:12:47;;;;;;;9.80;8.77;;;3.80;86.00;;;;;;4936401;29;20442;-68
2023/01/25 16:17:43;;;;;;;12.23;10.93;;;3.50;85.90;;;;;;4976298;23;20494;-74
2023/01/25 16:20:18;;;;;;;12.70;10.30;;;3.40;86.30;;;;;;4955338;29;20807;-73
2023/01/25 16:22:45;;;;;;;9.87;8.70;;;3.40;87.10;;;;;;4955322;28;20527;-73
2023/01/25 16:25:12;;;;;;;8.57;7.77;;;2.90;87.30;;;;;;4955402;29;20872;-74
2023/01/25 16:27:39;;;;;;;9.33;8.30;;;2.70;88.30;;;;;;4955439;29;20551;-73
2023/01/25 16:30:08;;;;;;;11.33;8.53;;;2.80;89.30;;;;;;4955650;29;20455;-77
2023/01/25 16:32:34;;;;;;;8.80;7.83;;;3.00;88.60;;;;;;4955771;28;20470;-74
2023/01/25 16:35:01;;;;;;;9.80;8.80;;;3.30;87.60;;;;;;4956294;29;20510;-74
2023/01/25 16:37:29;;;;;;;9.37;8.47;;;3.50;86.40;;;;;;4954968;29;20476;-73
2023/01/25 16:39:56;;;;;;;10.60;8.13;;;3.40;85.60;;;;;;4955250;29;20455;-74
2023/01/25 16:42:22;;;;;;;9.70;7.80;;;3.20;86.20;;;;;;4954981;29;20455;-73
2023/01/25 16:44:50;;;;;;;9.10;8.20;;;3.40;86.70;;;;;;4955103;29;20451;-74
2023/01/25 16:47:16;;;;;;;10.17;8.80;;;3.50;86.20;;;;;;4955146;29;20522;-75
2023/01/25 16:49:43;;;;;;;10.60;9.50;;;3.60;86.20;;;;;;4955017;29;20447;-75
2023/01/25 16:52:11;;;;;;;10.80;9.60;;;3.80;85.60;;;;;;4954657;29;20949;-73
2023/01/25 16:54:39;;;;;;;21.53;18.50;;;3.90;84.60;;;;;;4954583;29;21083;-74
2023/01/25 16:57:08;;;;;;;10.13;9.00;;;3.60;85.20;;;;;;4954693;29;20985;-73
2023/01/25 16:59:34;;;;;;;9.03;8.13;;;3.40;86.20;;;;;;4955029;29;20461;-73
2023/01/25 17:02:01;;;;;;;9.37;7.70;;;3.60;85.90;;;;;;4954854;29;20451;-74
2023/01/25 17:04:29;;;;;;;8.37;7.47;;;3.70;85.60;;;;;;4954790;29;20453;-74
2023/01/25 17:06:57;;;;;;;7.87;7.07;;;3.80;84.90;;;;;;4954915;29;20463;-74
2023/01/25 17:09:24;;;;;;;9.30;7.73;;;3.90;84.40;;;;;;4954911;29;20452;-75
2023/01/25 17:11:52;;;;;;;10.57;8.77;;;3.80;84.60;;;;;;4955878;29;20455;-74
2023/01/25 17:14:20;;;;;;;10.27;8.60;;;3.90;84.70;;;;;;4955331;29;20443;-73
2023/01/25 17:16:50;;;;;;;8.20;7.40;;;4.10;84.30;;;;;;4955133;28;20495;-75
2023/01/25 17:19:17;;;;;;;9.53;8.47;;;4.20;84.10;;;;;;4955081;29;20448;-74
2023/01/25 17:21:44;;;;;;;9.57;8.57;;;4.10;83.60;;;;;;4956283;29;20466;-75